createdAt,value
2023-05-14T00:00:07.594Z,17.27
2023-05-14T00:05:11.222Z,13.52
2023-05-14T00:10:14.381Z,16.17
2023-05-14T00:15:18.918Z,16.27
2023-05-14T00:20:22.273Z,17.27
2023-05-14T00:25:25.646Z,17.25
2023-05-14T00:30:30.147Z,16.35
2023-05-14T00:35:35.328Z,18.63
2023-05-14T00:40:38.684Z,19.15
2023-05-14T00:45:43.332Z,18.42
2023-05-14T00:50:46.750Z,19.67
2023-05-14T00:55:50.529Z,23.30
2023-05-14T01:00:55.166Z,18.65
2023-05-14T01:06:02.160Z,15.20
2023-05-14T01:11:08.157Z,18.15
2023-05-14T01:16:14.483Z,14.23
2023-05-14T01:21:35.494Z,15.02
2023-05-14T01:26:38.686Z,15.75
2023-05-14T01:31:44.276Z,17.45
2023-05-14T01:36:49.479Z,13.82
2023-05-14T01:41:53.424Z,14.88
2023-05-14T01:46:57.009Z,17.38
2023-05-14T01:52:01.482Z,13.55
2023-05-14T01:57:04.722Z,15.30
2023-05-14T02:02:08.106Z,18.77
2023-05-14T02:07:13.422Z,14.75
2023-05-14T02:12:16.477Z,14.55
2023-05-14T02:17:19.640Z,15.43
2023-05-14T02:22:24.096Z,18.33
2023-05-14T02:27:27.272Z,15.88
2023-05-14T02:32:30.489Z,19.00
2023-05-14T02:37:35.764Z,15.32
2023-05-14T02:42:38.892Z,15.07
2023-05-14T02:47:42.378Z,20.80
2023-05-14T02:52:47.023Z,19.85
2023-05-14T02:57:50.181Z,15.43
2023-05-14T03:02:53.604Z,20.88
2023-05-14T03:07:59.555Z,15.35
2023-05-14T03:13:02.718Z,17.63
2023-05-14T03:18:06.767Z,18.30
2023-05-14T03:23:11.352Z,23.23
2023-05-14T03:28:14.618Z,20.17
2023-05-14T03:33:17.764Z,17.50
2023-05-14T03:38:22.281Z,22.92
2023-05-14T03:43:25.671Z,20.33
2023-05-14T03:48:29.195Z,19.60
2023-05-14T03:53:33.685Z,19.33
2023-05-14T03:58:36.825Z,18.77
2023-05-14T04:03:40.095Z,22.25
2023-05-14T04:08:45.932Z,17.42
2023-05-14T04:13:49.126Z,18.08
2023-05-14T04:18:52.410Z,16.38
2023-05-14T04:23:57.389Z,22.27
2023-05-14T04:29:03.079Z,22.92
2023-05-14T04:34:06.282Z,22.50
2023-05-14T04:39:12.434Z,24.92
2023-05-14T04:44:15.954Z,26.42
2023-05-14T04:49:19.074Z,29.20
2023-05-14T04:54:23.607Z,23.77
2023-05-14T04:59:26.748Z,22.42
2023-05-14T05:04:29.847Z,21.35
2023-05-14T05:09:34.346Z,25.98
2023-05-14T05:14:39.883Z,22.75
2023-05-14T05:19:44.484Z,25.98
2023-05-14T05:24:50.050Z,23.63
2023-05-14T05:29:53.423Z,23.17
2023-05-14T05:34:56.661Z,23.98
2023-05-14T05:40:01.224Z,24.08
2023-05-14T05:45:04.541Z,24.13
2023-05-14T05:50:08.870Z,23.90
2023-05-14T05:55:13.822Z,21.98
2023-05-14T06:00:17.326Z,19.77
2023-05-14T06:05:20.649Z,18.77
2023-05-14T06:10:25.618Z,20.52
2023-05-14T06:15:28.818Z,23.95
2023-05-14T06:20:31.965Z,20.35
2023-05-14T06:25:36.416Z,17.20
2023-05-14T06:30:39.510Z,16.77
2023-05-14T06:35:42.665Z,18.60
2023-05-14T06:40:47.159Z,17.45
2023-05-14T06:45:50.610Z,21.13
2023-05-14T06:50:53.669Z,16.17
2023-05-14T06:55:58.173Z,16.20
2023-05-14T07:01:01.345Z,16.13
2023-05-14T07:06:04.878Z,20.08
2023-05-14T07:11:09.398Z,16.35
2023-05-14T07:16:12.583Z,20.25
2023-05-14T07:21:15.647Z,17.05
2023-05-14T07:26:20.111Z,14.57
2023-05-14T07:31:23.362Z,15.02
2023-05-14T07:36:26.796Z,18.85
2023-05-14T07:41:31.334Z,18.40
2023-05-14T07:46:34.451Z,11.68
2023-05-14T07:51:37.514Z,15.07
2023-05-14T07:56:41.976Z,14.65
2023-05-14T08:01:45.191Z,15.73
2023-05-14T08:06:48.409Z,15.98
2023-05-14T08:11:52.907Z,11.32
2023-05-14T08:16:56.147Z,12.20
2023-05-14T08:21:59.297Z,13.00
2023-05-14T08:27:03.747Z,11.43
2023-05-14T08:32:15.983Z,13.18
2023-05-14T08:37:26.242Z,10.05
2023-05-14T08:42:31.144Z,15.20
2023-05-14T08:47:34.583Z,16.95
2023-05-14T08:52:38.328Z,10.40
2023-05-14T08:57:42.781Z,13.43
2023-05-14T09:02:47.558Z,8.23
2023-05-14T09:07:51.090Z,9.07
2023-05-14T09:12:55.736Z,9.82
2023-05-14T09:17:58.990Z,9.90
2023-05-14T09:23:02.438Z,6.78
2023-05-14T09:28:09.586Z,8.57
2023-05-14T09:33:12.761Z,7.72
2023-05-14T09:38:16.080Z,9.43
2023-05-14T09:43:20.848Z,7.95
2023-05-14T09:48:24.471Z,7.07
2023-05-14T09:53:27.676Z,10.40
2023-05-14T09:58:32.154Z,10.50
2023-05-14T10:03:36.078Z,7.78
2023-05-14T10:08:41.709Z,8.18
2023-05-14T10:13:47.812Z,6.18
2023-05-14T10:18:55.787Z,8.50
2023-05-14T10:24:00.639Z,7.00
2023-05-14T10:29:05.079Z,8.38
2023-05-14T10:34:28.215Z,11.13
2023-05-14T10:39:41.379Z,6.78
2023-05-14T10:44:49.575Z,11.80
2023-05-14T10:49:54.860Z,8.90
2023-05-14T10:55:00.643Z,10.18
2023-05-14T11:00:08.980Z,12.77
2023-05-14T11:05:15.946Z,9.23
2023-05-14T11:10:20.060Z,10.40
2023-05-14T11:15:26.012Z,7.50
2023-05-14T11:20:29.267Z,7.85
2023-05-14T11:25:32.542Z,9.75
2023-05-14T11:30:36.992Z,11.15
2023-05-14T11:35:40.481Z,11.20
2023-05-14T11:40:44.131Z,12.95
2023-05-14T11:45:52.571Z,12.20
2023-05-14T11:50:55.786Z,10.25
2023-05-14T11:55:58.944Z,10.48
2023-05-14T12:01:03.455Z,8.63
2023-05-14T12:06:07.676Z,9.55
2023-05-14T12:11:10.777Z,6.15
2023-05-14T12:16:16.000Z,9.07
2023-05-14T12:21:19.576Z,8.85
2023-05-14T12:26:23.013Z,10.38
2023-05-14T12:31:30.705Z,10.00
2023-05-14T12:36:34.072Z,9.00
2023-05-14T12:41:37.619Z,13.48
2023-05-14T12:46:42.077Z,8.95
2023-05-14T12:51:46.873Z,9.23
2023-05-14T12:56:50.119Z,12.65
2023-05-14T13:01:54.718Z,12.57
2023-05-14T13:06:57.860Z,10.90
2023-05-14T13:12:00.999Z,9.38
2023-05-14T13:17:07.041Z,10.60
2023-05-14T13:22:10.432Z,7.43
2023-05-14T13:27:13.937Z,11.32
2023-05-14T13:32:18.471Z,8.57
2023-05-14T13:37:21.615Z,7.60
2023-05-14T13:42:24.700Z,10.55
2023-05-14T13:47:29.279Z,8.85
2023-05-14T13:52:32.429Z,8.88
2023-05-14T13:57:35.684Z,8.13
2023-05-14T14:02:40.165Z,9.93
2023-05-14T14:07:43.394Z,8.55
2023-05-14T14:12:46.562Z,8.57
2023-05-14T14:17:51.140Z,6.88
2023-05-14T14:22:54.360Z,9.60
2023-05-14T14:27:57.648Z,6.85
2023-05-14T14:33:02.228Z,8.95
2023-05-14T14:38:05.359Z,10.27
2023-05-14T14:43:08.438Z,9.00
2023-05-14T14:48:26.328Z,7.43
2023-05-14T14:53:29.628Z,8.02
2023-05-14T14:58:32.880Z,9.65
2023-05-14T15:03:37.709Z,6.47
2023-05-14T15:08:41.512Z,7.53
2023-05-14T15:13:44.738Z,6.82
2023-05-14T15:18:49.361Z,8.88
2023-05-14T15:23:52.832Z,8.23
2023-05-14T15:28:56.218Z,8.35
2023-05-14T15:34:00.878Z,12.73
2023-05-14T15:39:04.069Z,9.43
2023-05-14T15:44:07.261Z,7.20
2023-05-14T15:49:11.826Z,7.00
2023-05-14T15:54:15.197Z,8.00
2023-05-14T15:59:18.330Z,12.70
2023-05-14T16:04:22.824Z,9.02
2023-05-14T16:09:26.757Z,10.48
2023-05-14T16:14:29.876Z,10.10
2023-05-14T16:19:34.387Z,10.70
2023-05-14T16:24:37.689Z,9.75
2023-05-14T16:29:40.885Z,8.70
2023-05-14T16:34:49.687Z,9.85
2023-05-14T16:39:53.471Z,5.93
2023-05-14T16:44:56.554Z,9.65
2023-05-14T16:50:01.134Z,7.65
2023-05-14T16:55:04.553Z,8.80
2023-05-14T17:00:09.540Z,7.93
2023-05-14T17:05:14.120Z,10.68
2023-05-14T17:10:17.196Z,11.07
2023-05-14T17:15:20.419Z,9.10
2023-05-14T17:20:25.533Z,8.82
2023-05-14T17:25:28.974Z,9.98
2023-05-14T17:30:32.135Z,8.15
2023-05-14T17:35:37.311Z,8.65
2023-05-14T17:40:40.911Z,8.88
2023-05-14T17:45:53.763Z,13.13
2023-05-14T17:50:59.182Z,9.23
2023-05-14T17:56:02.319Z,13.18
2023-05-14T18:01:06.191Z,10.82
2023-05-14T18:06:10.911Z,13.65
2023-05-14T18:11:14.038Z,11.48
2023-05-14T18:16:17.269Z,21.58
2023-05-14T18:21:21.801Z,14.88
2023-05-14T18:26:25.011Z,13.93
2023-05-14T18:31:28.548Z,16.33
2023-05-14T18:36:33.797Z,17.02
2023-05-14T18:41:36.985Z,17.00
2023-05-14T18:46:40.316Z,16.33
2023-05-14T18:51:44.910Z,19.80
2023-05-14T18:56:48.108Z,15.20
2023-05-14T19:01:51.305Z,15.50
2023-05-14T19:06:55.833Z,16.20
2023-05-14T19:11:59.303Z,19.20
2023-05-14T19:17:02.436Z,16.52
2023-05-14T19:22:07.258Z,22.60
2023-05-14T19:27:10.442Z,19.33
2023-05-14T19:32:13.613Z,15.75
2023-05-14T19:37:18.130Z,11.05
2023-05-14T19:42:21.231Z,11.38
2023-05-14T19:47:24.344Z,14.38
2023-05-14T19:52:28.819Z,21.65
2023-05-14T19:57:32.006Z,12.10
2023-05-14T20:02:35.254Z,16.13
2023-05-14T20:07:40.584Z,18.00
2023-05-14T20:12:43.825Z,13.23
2023-05-14T20:17:47.004Z,22.05
2023-05-14T20:22:51.696Z,15.57
2023-05-14T20:27:54.808Z,17.40
2023-05-14T20:32:57.953Z,17.50
2023-05-14T20:38:03.734Z,15.77
2023-05-14T20:43:06.896Z,15.00
2023-05-14T20:48:11.458Z,17.90
2023-05-14T20:53:15.990Z,18.73
2023-05-14T20:58:19.137Z,13.88
2023-05-14T21:03:22.316Z,13.40
2023-05-14T21:08:26.954Z,19.52
2023-05-14T21:13:30.138Z,17.30
2023-05-14T21:18:33.341Z,13.68
2023-05-14T21:23:37.959Z,16.38
2023-05-14T21:28:41.089Z,16.50
2023-05-14T21:33:44.246Z,15.00
2023-05-14T21:38:49.889Z,19.85
2023-05-14T21:43:53.067Z,16.45
2023-05-14T21:48:56.416Z,17.90
2023-05-14T21:54:00.970Z,19.23
2023-05-14T21:59:04.819Z,18.55
2023-05-14T22:04:08.005Z,18.25
2023-05-14T22:09:12.857Z,17.42
2023-05-14T22:14:15.977Z,18.33
2023-05-14T22:19:19.123Z,20.25
2023-05-14T22:24:23.657Z,18.10
2023-05-14T22:29:26.938Z,19.20
2023-05-14T22:34:30.268Z,18.70
2023-05-14T22:39:34.833Z,17.30
2023-05-14T22:44:37.939Z,22.33
2023-05-14T22:49:41.414Z,18.17
2023-05-14T22:54:46.621Z,19.42
2023-05-14T22:59:49.791Z,18.00
2023-05-14T23:04:52.994Z,22.67
2023-05-14T23:09:57.495Z,17.77
2023-05-14T23:15:00.616Z,23.27
2023-05-14T23:20:05.035Z,23.58
2023-05-14T23:25:10.310Z,19.13
2023-05-14T23:30:13.840Z,22.15
2023-05-14T23:35:17.183Z,22.77
2023-05-14T23:40:21.788Z,19.10
2023-05-14T23:45:25.168Z,26.02
2023-05-14T23:50:28.866Z,21.83
2023-05-14T23:55:33.429Z,24.58
